Time;durP1;ratioP1;P1;durP2;ratioP2;P2;SDS_P1;SDS_P2;PMS_P1;PMS_P2;Temp;Humidity;BMP_temperature;BMP_pressure;BME280_temperature;BME280_humidity;BME280_pressure;Samples;Min_cycle;Max_cycle;Signal;HPM_P1;HPM_P2
2022/12/23 00:00:20;;;;;;;25.85;15.02;;;6.30;1.00;;;;;;6254427;23;20294;-87
2022/12/23 00:02:46;;;;;;;26.20;13.27;;;6.30;1.00;;;;;;6252521;23;20261;-88
2022/12/23 00:05:13;;;;;;;24.77;16.27;;;6.30;1.00;;;;;;6251258;23;20178;-88
2022/12/23 00:07:40;;;;;;;26.50;15.80;;;6.80;1.00;;;;;;6250252;22;20229;-88
2022/12/23 00:10:08;;;;;;;30.05;14.40;;;6.40;1.00;;;;;;6251296;23;20226;-88
2022/12/23 00:15:32;;;;;;;24.35;14.95;;;6.50;1.00;;;;;;6178481;23;20215;-88
2022/12/23 00:17:59;;;;;;;31.67;16.67;;;6.30;1.00;;;;;;6251283;22;20209;-88
2022/12/23 00:20:26;;;;;;;23.45;15.20;;;6.30;1.00;;;;;;6262016;22;20545;-88
2022/12/23 00:23:05;;;;;;;23.33;15.02;;;6.40;1.00;;;;;;6252502;23;20690;-88
2022/12/23 00:25:43;;;;;;;27.30;14.25;;;6.30;1.00;;;;;;6253746;23;20165;-87
2022/12/23 00:28:12;;;;;;;24.52;14.40;;;6.30;1.00;;;;;;6254054;22;20198;-87
2022/12/23 00:30:46;;;;;;;30.52;14.40;;;6.20;1.00;;;;;;6254575;23;20718;-87
2022/12/23 00:33:13;;;;;;;32.45;15.02;;;6.20;1.00;;;;;;6254374;23;20159;-87
2022/12/23 00:35:40;;;;;;;24.83;15.32;;;6.50;1.00;;;;;;6251212;23;20179;-87
2022/12/23 00:38:06;;;;;;;24.50;14.23;;;6.20;1.00;;;;;;6250603;22;20198;-87
2022/12/23 00:43:18;;;;;;;26.20;17.40;;;6.20;1.00;;;;;;6250780;23;20606;-88
2022/12/23 00:45:47;;;;;;;27.08;14.70;;;6.20;1.00;;;;;;6250375;23;20273;-88
2022/12/23 00:50:58;;;;;;;30.55;15.43;;;6.00;1.00;;;;;;6250895;23;20154;-88
2022/12/23 00:53:25;;;;;;;32.42;15.90;;;6.30;1.00;;;;;;6251123;23;20185;-88
2022/12/23 00:55:52;;;;;;;24.45;15.63;;;6.20;1.00;;;;;;6261465;22;20536;-88
2022/12/23 00:58:21;;;;;;;25.63;15.48;;;6.50;1.00;;;;;;6250184;22;20202;-88
2022/12/23 01:06:18;;;;;;;29.70;16.10;;;6.10;1.00;;;;;;6250975;23;20154;-88
2022/12/23 01:08:45;;;;;;;27.33;15.48;;;6.20;1.00;;;;;;6250715;22;20194;-88
2022/12/23 01:11:12;;;;;;;24.35;16.67;;;6.30;1.00;;;;;;6250779;23;20513;-88
2022/12/23 01:13:39;;;;;;;24.25;14.85;;;6.40;1.00;;;;;;6250336;23;20178;-88
2022/12/23 01:16:10;;;;;;;31.70;16.38;;;6.10;1.00;;;;;;6249652;23;20179;-88
2022/12/23 01:18:39;;;;;;;23.60;15.07;;;6.20;1.00;;;;;;6250311;22;20199;-88
2022/12/23 01:21:07;;;;;;;23.77;14.45;;;6.20;1.00;;;;;;6250761;23;20178;-88
2022/12/23 01:23:35;;;;;;;24.60;16.63;;;6.10;1.00;;;;;;6251463;23;20254;-88
2022/12/23 01:26:03;;;;;;;25.05;14.55;;;6.20;1.00;;;;;;6249977;23;20178;-88
2022/12/23 01:28:31;;;;;;;26.88;15.05;;;6.20;1.00;;;;;;6254638;22;20250;-88
2022/12/23 01:31:00;;;;;;;23.75;12.88;;;6.20;1.00;;;;;;6275670;22;20179;-88
2022/12/23 01:33:29;;;;;;;23.98;14.55;;;6.20;1.00;;;;;;6265935;22;20634;-88
2022/12/23 01:36:00;;;;;;;24.88;14.38;;;6.20;1.00;;;;;;6250870;23;20257;-89
2022/12/23 01:38:27;;;;;;;35.55;15.55;;;6.10;1.00;;;;;;6250314;22;20217;-89
2022/12/23 01:40:54;;;;;;;26.65;14.73;;;;;;;;;;6250203;23;20217;-88
2022/12/23 01:43:20;;;;;;;30.63;15.00;;;6.30;1.00;;;;;;6250402;23;20196;-87
2022/12/23 01:45:47;;;;;;;23.45;14.57;;;6.30;1.00;;;;;;6249615;23;20253;-87
2022/12/23 01:48:18;;;;;;;28.88;16.35;;;6.30;1.00;;;;;;6250495;22;20233;-88
2022/12/23 01:50:51;;;;;;;24.80;14.63;;;6.30;1.00;;;;;;6258881;23;20171;-88
2022/12/23 01:53:24;;;;;;;33.33;17.65;;;6.50;1.00;;;;;;6251375;23;20241;-87
2022/12/23 01:55:56;;;;;;;26.65;16.02;;;6.30;1.00;;;;;;6250437;23;20611;-88
2022/12/23 01:58:28;;;;;;;27.90;15.90;;;6.30;1.00;;;;;;6249374;22;20202;-88
2022/12/23 02:03:42;;;;;;;29.27;16.55;;;6.50;1.00;;;;;;6249376;23;20169;-88
2022/12/23 02:09:17;;;;;;;33.72;14.70;;;6.30;1.00;;;;;;6253363;22;20575;-87
2022/12/23 02:12:25;;;;;;;29.63;15.27;;;6.20;1.00;;;;;;6250298;23;20678;-87
2022/12/23 02:17:56;;;;;;;29.83;15.57;;;6.30;1.00;;;;;;6248971;22;20228;-87
2022/12/23 02:20:51;;;;;;;31.80;18.17;;;6.30;1.00;;;;;;6249375;23;20221;-88
2022/12/23 02:23:54;;;;;;;36.25;17.48;;;6.30;1.00;;;;;;6243123;23;20175;-87
2022/12/23 02:26:55;;;;;;;40.05;21.65;;;6.30;1.00;;;;;;6249561;23;20198;-88
2022/12/23 02:29:44;;;;;;;42.25;24.83;;;6.10;1.00;;;;;;6265887;23;20210;-88
2022/12/23 02:32:22;;;;;;;31.05;16.98;;;6.30;1.00;;;;;;6274379;23;20150;-87
2022/12/23 02:34:54;;;;;;;38.30;19.77;;;6.20;1.00;;;;;;6254740;23;20169;-87
2022/12/23 02:37:29;;;;;;;33.03;17.73;;;6.20;1.00;;;;;;6250306;22;20230;-87
2022/12/23 02:40:01;;;;;;;33.63;16.90;;;6.20;1.00;;;;;;6249275;23;20245;-86
2022/12/23 02:42:33;;;;;;;33.55;18.70;;;6.20;1.00;;;;;;6248954;23;20242;-86
2022/12/23 02:45:07;;;;;;;31.38;16.52;;;6.10;1.00;;;;;;6248613;23;20202;-86
2022/12/23 02:47:40;;;;;;;31.70;16.20;;;6.50;1.00;;;;;;6248776;22;20225;-87
2022/12/23 02:50:12;;;;;;;35.08;17.75;;;6.20;1.00;;;;;;6249215;23;20495;-87
2022/12/23 02:52:41;;;;;;;29.50;16.58;;;5.50;1.00;;;;;;6248701;23;20163;-87
2022/12/23 02:55:12;;;;;;;32.90;18.20;;;6.60;1.00;;;;;;6250164;23;20235;-86
2022/12/23 02:57:44;;;;;;;28.55;17.50;;;6.60;1.00;;;;;;6252915;22;20709;-88
2022/12/23 03:00:14;;;;;;;29.73;15.52;;;6.30;1.00;;;;;;6248125;23;20242;-88
2022/12/23 03:02:42;;;;;;;34.08;17.60;;;;;;;;;;6248554;23;20566;-88
2022/12/23 03:05:24;;;;;;;36.00;17.05;;;6.10;1.00;;;;;;6248557;23;20504;-87
2022/12/23 03:07:54;;;;;;;34.00;17.73;;;6.30;1.00;;;;;;6248254;22;20194;-88
2022/12/23 03:10:32;;;;;;;38.22;17.27;;;6.30;1.00;;;;;;6249378;23;20279;-88
2022/12/23 03:13:09;;;;;;;35.92;16.98;;;6.20;1.00;;;;;;6249476;23;20638;-88
2022/12/23 03:15:44;;;;;;;37.75;18.33;;;6.20;1.00;;;;;;6249610;23;20598;-88
2022/12/23 03:18:21;;;;;;;34.75;18.10;;;6.20;1.00;;;;;;6249559;22;20259;-87
2022/12/23 03:20:54;;;;;;;36.22;17.65;;;6.20;1.00;;;;;;6248743;23;20632;-87
2022/12/23 03:23:26;;;;;;;38.30;17.70;;;6.20;1.00;;;;;;6248160;23;20162;-87
2022/12/23 03:26:02;;;;;;;38.50;19.02;;;6.20;1.00;;;;;;6247953;23;20243;-87
2022/12/23 03:28:35;;;;;;;32.88;17.25;;;6.20;1.00;;;;;;6248700;22;20193;-87
2022/12/23 03:31:05;;;;;;;35.17;18.77;;;6.20;1.00;;;;;;6248981;23;20214;-87
2022/12/23 03:33:37;;;;;;;34.05;17.30;;;6.20;1.00;;;;;;6248181;23;20502;-87
2022/12/23 03:36:09;;;;;;;40.72;18.55;;;6.20;1.00;;;;;;6251863;23;20201;-87
2022/12/23 03:38:38;;;;;;;38.20;18.95;;;5.90;1.00;;;;;;6268709;22;20232;-87
2022/12/23 03:41:09;;;;;;;37.60;18.05;;;6.00;1.00;;;;;;6270090;22;20174;-87
2022/12/23 03:43:40;;;;;;;43.30;19.52;;;6.30;1.00;;;;;;6274545;22;20174;-87
2022/12/23 03:46:11;;;;;;;37.03;18.80;;;6.20;1.00;;;;;;6274790;22;20166;-87
2022/12/23 03:48:44;;;;;;;36.70;19.23;;;6.30;1.00;;;;;;6274611;22;20249;-87
2022/12/23 03:51:14;;;;;;;39.72;18.38;;;6.20;1.00;;;;;;6274886;22;20163;-87
2022/12/23 03:53:45;;;;;;;35.78;17.88;;;6.30;1.00;;;;;;6273921;22;20186;-87
2022/12/23 03:56:17;;;;;;;43.15;21.50;;;6.30;1.00;;;;;;6262046;23;20264;-87
2022/12/23 03:58:48;;;;;;;43.80;20.33;;;6.30;1.00;;;;;;6274332;22;20214;-87
2022/12/23 04:01:21;;;;;;;45.10;21.23;;;6.80;1.00;;;;;;6274496;23;20219;-87
2022/12/23 04:03:59;;;;;;;45.72;23.70;;;6.20;1.00;;;;;;6273498;22;20143;-87
2022/12/23 04:06:31;;;;;;;42.42;20.48;;;6.30;1.00;;;;;;6254822;23;20224;-88
2022/12/23 04:08:58;;;;;;;42.22;19.88;;;6.30;1.00;;;;;;6250043;22;20197;-88
2022/12/23 04:11:25;;;;;;;44.50;20.25;;;6.30;1.00;;;;;;6269404;23;20707;-87
2022/12/23 04:13:53;;;;;;;43.08;19.80;;;6.30;1.00;;;;;;6273664;22;20166;-88
2022/12/23 04:16:20;;;;;;;38.63;19.45;;;6.30;1.00;;;;;;6273867;22;20181;-88
2022/12/23 04:18:47;;;;;;;35.40;17.95;;;6.20;1.00;;;;;;6272390;22;20218;-87
2022/12/23 04:21:15;;;;;;;36.83;18.20;;;6.20;1.00;;;;;;6273238;22;20225;-87
2022/12/23 04:23:42;;;;;;;35.28;18.60;;;6.10;8.40;;;;;;6273881;22;20155;-87
2022/12/23 04:26:09;;;;;;;35.22;17.30;;;6.30;4.30;;;;;;6274425;22;20190;-87
2022/12/23 04:28:35;;;;;;;38.30;18.65;;;6.40;1.00;;;;;;6274455;22;20212;-87
2022/12/23 04:31:02;;;;;;;34.78;18.77;;;6.30;1.00;;;;;;6273713;22;20174;-88
2022/12/23 04:33:29;;;;;;;42.58;19.17;;;6.40;1.00;;;;;;6269667;23;20208;-88
2022/12/23 04:35:56;;;;;;;33.97;17.30;;;6.60;1.00;;;;;;6268783;23;20179;-87
2022/12/23 04:38:24;;;;;;;34.47;18.00;;;6.30;1.00;;;;;;6268462;22;20194;-88
2022/12/23 04:40:51;;;;;;;48.00;18.13;;;6.30;1.00;;;;;;6269479;23;20183;-87
2022/12/23 04:43:18;;;;;;;32.67;17.30;;;6.60;1.00;;;;;;6275260;22;20182;-86
2022/12/23 04:45:49;;;;;;;42.33;20.15;;;6.50;9.10;;;;;;6275304;22;20174;-87
2022/12/23 04:48:16;;;;;;;38.38;19.55;;;6.30;1.00;;;;;;6272778;22;20206;-87
2022/12/23 04:50:43;;;;;;;39.08;20.80;;;6.30;1.00;;;;;;6271249;23;20174;-88
2022/12/23 04:53:09;;;;;;;37.53;19.38;;;6.10;8.80;;;;;;6271049;23;20170;-88
2022/12/23 04:55:38;;;;;;;39.58;18.60;;;6.70;13.70;;;;;;6269129;23;20175;-88
2022/12/23 04:58:04;;;;;;;40.97;19.10;;;6.40;1.00;;;;;;6273361;22;20199;-88
2022/12/23 05:00:31;;;;;;;41.35;19.88;;;6.40;1.00;;;;;;6268286;23;20213;-88
2022/12/23 05:02:58;;;;;;;43.83;18.52;;;6.60;6.80;;;;;;6270720;22;20174;-88
2022/12/23 05:05:25;;;;;;;35.67;18.98;;;6.50;1.00;;;;;;6268594;23;20179;-88
2022/12/23 05:08:02;;;;;;;40.45;18.67;;;6.40;1.00;;;;;;6257527;22;20217;-87
2022/12/23 05:10:28;;;;;;;43.28;18.20;;;6.90;8.70;;;;;;6255563;23;20230;-88
2022/12/23 05:12:57;;;;;;;44.40;18.75;;;6.60;1.00;;;;;;6255248;23;20210;-87
2022/12/23 05:15:24;;;;;;;37.90;18.85;;;;;;;;;;6252917;23;20179;-87
2022/12/23 05:17:51;;;;;;;40.47;18.00;;;6.20;1.00;;;;;;6253596;22;20281;-88
2022/12/23 05:20:17;;;;;;;30.27;17.58;;;6.50;1.00;;;;;;6254549;23;20210;-87
2022/12/23 05:22:44;;;;;;;31.42;16.80;;;6.80;1.00;;;;;;6229190;23;20174;-87
2022/12/23 05:25:11;;;;;;;43.35;18.30;;;6.50;1.00;;;;;;6255944;23;20179;-88
2022/12/23 05:27:38;;;;;;;39.17;17.80;;;6.20;10.30;;;;;;6255385;22;20218;-87
2022/12/23 05:30:09;;;;;;;34.80;16.92;;;6.50;1.00;;;;;;6255463;23;20170;-87
2022/12/23 05:32:38;;;;;;;40.85;19.08;;;6.50;1.00;;;;;;6261548;23;20215;-87
2022/12/23 05:35:05;;;;;;;35.80;18.88;;;6.50;6.30;;;;;;6263917;23;20179;-88
2022/12/23 05:37:32;;;;;;;32.40;17.13;;;6.50;6.20;;;;;;6254823;22;20194;-88
2022/12/23 05:39:59;;;;;;;36.10;18.98;;;6.30;1.00;;;;;;6254893;23;20253;-88
2022/12/23 05:42:25;;;;;;;39.15;18.02;;;6.20;12.30;;;;;;6254923;23;20245;-88
2022/12/23 05:44:52;;;;;;;35.25;16.80;;;6.40;9.40;;;;;;6256272;23;20205;-88
2022/12/23 06:59:54;;;;;;;33.80;17.27;;;6.90;1.00;;;;;;6020251;23;20210;-84
2022/12/23 07:08:19;;;;;;;33.13;19.35;;;;;;;;;;6123885;23;20659;-83
2022/12/23 07:14:04;;;;;;;36.05;17.83;;;;;;;;;;6167833;23;20173;-84
2022/12/23 07:20:13;;;;;;;38.38;18.70;;;;;;;;;;6168642;23;20590;-84
2022/12/23 07:22:52;;;;;;;41.22;20.38;;;;;;;;;;6226165;23;20183;-86
2022/12/23 07:31:56;;;;;;;38.00;18.85;;;;;;;;;;6220369;23;20662;-85
2022/12/23 07:34:34;;;;;;;41.55;19.98;;;;;;;;;;6227822;23;20175;-85
2022/12/23 07:37:02;;;;;;;38.90;16.55;;;;;;;;;;6226285;23;20519;-85
2022/12/23 07:39:40;;;;;;;39.13;16.25;;;;;;;;;;6238989;23;20183;-85
2022/12/23 07:42:21;;;;;;;32.30;17.75;;;;;;;;;;6241926;23;20163;-85
2022/12/23 07:45:00;;;;;;;40.80;16.48;;;;;;;;;;6242307;23;20159;-84
2022/12/23 07:47:31;;;;;;;42.65;18.55;;;;;;;;;;6224591;23;20175;-84
2022/12/23 07:50:09;;;;;;;37.42;17.35;;;7.00;1.00;;;;;;6226497;23;20167;-83
2022/12/23 07:59:16;;;;;;;30.27;14.95;;;;;;;;;;6048271;23;20194;-84
2022/12/23 08:02:01;;;;;;;36.47;14.18;;;;;;;;;;6101462;23;20201;-83
2022/12/23 08:08:13;;;;;;;35.92;14.55;;;;;;;;;;6211152;23;20575;-84
2022/12/23 08:10:48;;;;;;;29.88;13.30;;;;;;;;;;6228512;23;20181;-83
2022/12/23 08:16:08;;;;;;;26.80;12.45;;;;;;;;;;6138957;23;20240;-84
2022/12/23 08:19:04;;;;;;;29.13;12.63;;;7.20;1.00;;;;;;6226967;23;20206;-85
2022/12/23 08:22:16;;;;;;;24.83;11.63;;;7.20;1.00;;;;;;6256143;22;20204;-81
2022/12/23 08:29:22;;;;;;;32.22;12.80;;;7.30;1.00;;;;;;6260866;22;20300;-83
2022/12/23 08:32:15;;;;;;;26.80;11.65;;;;;;;;;;6022854;23;20286;-83
2022/12/23 08:35:05;;;;;;;19.02;10.57;;;;;;;;;;6022368;23;20173;-84
2022/12/23 08:37:41;;;;;;;22.08;10.02;;;;;;;;;;6021698;23;20259;-84
2022/12/23 08:44:48;;;;;;;27.63;12.35;;;;;;;;;;5957310;24;20264;-86
2022/12/23 08:47:23;;;;;;;27.45;11.65;;;;;;;;;;6001187;23;20188;-84
2022/12/23 08:50:22;;;;;;;27.83;11.27;;;7.30;1.00;;;;;;6175306;23;20530;-84
2022/12/23 09:32:44;;;;;;;14.15;8.30;;;;;;;;;;5875642;24;20174;-85
2022/12/23 09:35:35;;;;;;;22.95;11.15;;;;;;;;;;6031384;23;20183;-85
2022/12/23 09:38:09;;;;;;;18.88;8.57;;;7.60;1.00;;;;;;6179627;23;20203;-84
2022/12/23 09:40:38;;;;;;;17.88;8.32;;;7.50;1.00;;;;;;6233836;23;20210;-85
2022/12/23 09:43:14;;;;;;;18.48;8.00;;;7.60;1.00;;;;;;6232496;23;20199;-85
2022/12/23 09:45:55;;;;;;;18.13;9.20;;;7.60;16.00;;;;;;6232274;23;20198;-83
2022/12/23 09:48:28;;;;;;;19.42;9.00;;;7.60;1.00;;;;;;6231646;23;20250;-84
2022/12/23 09:50:55;;;;;;;16.05;9.00;;;7.60;1.00;;;;;;6234518;23;20167;-85
2022/12/23 09:53:26;;;;;;;15.77;8.13;;;7.60;1.00;;;;;;6233880;23;20290;-84
2022/12/23 09:56:00;;;;;;;17.05;8.50;;;7.70;1.00;;;;;;6233959;23;20662;-81
2022/12/23 09:58:30;;;;;;;18.88;8.50;;;7.50;1.00;;;;;;6234100;23;20715;-83
2022/12/23 10:01:15;;;;;;;17.13;8.63;;;7.70;1.00;;;;;;6233708;23;20186;-84
2022/12/23 10:03:59;;;;;;;16.42;9.77;;;7.70;1.00;;;;;;6233565;23;20195;-85
2022/12/23 10:06:29;;;;;;;15.13;8.05;;;7.90;13.30;;;;;;6233808;23;20163;-83
2022/12/23 10:09:00;;;;;;;15.80;8.15;;;7.70;1.00;;;;;;6234331;23;20253;-85
2022/12/23 10:11:32;;;;;;;17.20;8.60;;;7.40;1.00;;;;;;6235462;23;20160;-84
2022/12/23 10:14:02;;;;;;;15.70;8.88;;;7.50;1.00;;;;;;6234972;23;20186;-84
2022/12/23 10:16:33;;;;;;;16.05;7.13;;;7.70;1.00;;;;;;6227446;23;20616;-84
2022/12/23 10:19:05;;;;;;;14.88;8.35;;;7.80;1.00;;;;;;6228267;23;20531;-84
2022/12/23 10:21:36;;;;;;;18.58;7.78;;;7.70;1.00;;;;;;6231465;23;20179;-84
2022/12/23 10:24:11;;;;;;;14.63;9.07;;;7.80;1.00;;;;;;6267936;23;20528;-83
2022/12/23 10:26:43;;;;;;;16.20;8.70;;;7.80;1.00;;;;;;6268441;23;20163;-85
2022/12/23 10:29:17;;;;;;;16.48;8.32;;;7.70;1.00;;;;;;6264915;23;20278;-84
2022/12/23 10:31:56;;;;;;;13.90;8.20;;;7.80;1.00;;;;;;6264530;23;20186;-85
2022/12/23 10:34:29;;;;;;;18.40;7.03;;;6.30;1.00;;;;;;6264133;23;20360;-82
2022/12/23 10:37:04;;;;;;;15.68;8.70;;;7.70;1.00;;;;;;6264296;23;20266;-85
2022/12/23 10:39:40;;;;;;;13.68;7.57;;;7.70;1.00;;;;;;6263443;23;20697;-84
2022/12/23 10:42:15;;;;;;;13.87;7.80;;;7.80;1.00;;;;;;6261549;23;20658;-83
2022/12/23 10:45:05;;;;;;;15.60;8.50;;;8.00;1.00;;;;;;6262700;23;20386;-85
2022/12/23 10:47:42;;;;;;;18.25;9.07;;;7.90;1.00;;;;;;6264252;23;20504;-85
2022/12/23 10:50:27;;;;;;;20.45;9.85;;;7.70;1.00;;;;;;6263026;23;20159;-85
2022/12/23 10:52:59;;;;;;;21.60;10.00;;;7.90;1.00;;;;;;6263236;23;20167;-83
2022/12/23 10:55:32;;;;;;;21.02;8.43;;;8.30;1.00;;;;;;6269091;23;20381;-81
2022/12/23 10:58:05;;;;;;;18.77;10.98;;;7.90;1.00;;;;;;6272113;23;20220;-83
2022/12/23 11:00:32;;;;;;;17.23;9.03;;;8.00;1.00;;;;;;6271318;23;20217;-83
2022/12/23 11:03:12;;;;;;;23.48;9.68;;;8.20;1.00;;;;;;6272147;23;20405;-82
2022/12/23 11:05:41;;;;;;;19.80;11.37;;;8.20;1.00;;;;;;6268835;23;20163;-84
2022/12/23 11:08:09;;;;;;;19.98;10.70;;;8.00;1.00;;;;;;6264685;23;20449;-83
2022/12/23 11:10:36;;;;;;;19.25;12.10;;;8.30;1.00;;;;;;6259601;23;20174;-84
2022/12/23 11:13:03;;;;;;;18.97;10.60;;;8.10;1.00;;;;;;6259058;23;20542;-83
2022/12/23 11:15:34;;;;;;;22.20;11.95;;;8.10;1.00;;;;;;6263605;23;20401;-84
2022/12/23 11:18:08;;;;;;;18.17;11.02;;;8.30;1.00;;;;;;6264256;22;20213;-84
2022/12/23 11:20:37;;;;;;;14.70;10.27;;;8.10;1.00;;;;;;6257277;23;20183;-83
2022/12/23 11:23:06;;;;;;;17.48;9.00;;;8.40;1.00;;;;;;6261175;23;20388;-84
2022/12/23 11:25:46;;;;;;;18.27;10.97;;;8.00;1.00;;;;;;6262003;23;20179;-83
2022/12/23 11:28:27;;;;;;;15.48;9.30;;;8.20;1.00;;;;;;6269700;23;20408;-85
2022/12/23 11:30:59;;;;;;;19.45;12.93;;;8.10;1.00;;;;;;6266161;22;20177;-83
2022/12/23 11:33:29;;;;;;;16.77;10.50;;;8.50;1.00;;;;;;6262351;23;20166;-84
2022/12/23 11:36:08;;;;;;;16.20;12.07;;;8.50;1.00;;;;;;6271598;23;20194;-85
2022/12/23 11:38:46;;;;;;;20.50;11.88;;;7.80;1.00;;;;;;6270256;23;20194;-85
2022/12/23 11:41:21;;;;;;;19.43;12.33;;;8.40;1.00;;;;;;6264843;23;20174;-83
2022/12/23 11:43:56;;;;;;;16.50;10.70;;;8.10;1.00;;;;;;6263986;23;20388;-84
2022/12/23 11:46:27;;;;;;;16.93;10.73;;;8.10;1.00;;;;;;6260750;23;20413;-84
2022/12/23 11:49:14;;;;;;;20.03;11.07;;;8.10;1.00;;;;;;6254341;23;20409;-84
2022/12/23 11:51:46;;;;;;;16.15;9.70;;;;;;;;;;6252910;22;20450;-90
2022/12/23 11:54:20;;;;;;;13.95;10.15;;;7.70;1.00;;;;;;6259820;23;20167;-90
2022/12/23 11:56:51;;;;;;;17.35;10.10;;;8.30;1.00;;;;;;6259705;23;20228;-91
2022/12/23 11:59:30;;;;;;;16.10;11.32;;;7.90;1.00;;;;;;6258804;23;20159;-90
2022/12/23 12:02:00;;;;;;;20.60;10.13;;;8.00;1.00;;;;;;6240052;23;20195;-90
2022/12/23 12:04:32;;;;;;;19.35;13.77;;;8.10;1.00;;;;;;6224044;23;20172;-90
2022/12/23 12:07:00;;;;;;;35.85;24.95;;;;;;;;;;6225919;23;20433;-90
2022/12/23 12:09:30;;;;;;;23.20;14.57;;;8.10;1.00;;;;;;6225319;23;20175;-90
2022/12/23 12:12:03;;;;;;;20.20;12.40;;;8.00;1.00;;;;;;6223656;23;20417;-89
2022/12/23 12:14:36;;;;;;;20.30;13.20;;;8.10;1.00;;;;;;6239366;23;20202;-90
2022/12/23 12:17:13;;;;;;;21.85;13.30;;;8.00;1.00;;;;;;6242727;23;20147;-89
2022/12/23 12:19:48;;;;;;;20.88;12.45;;;8.00;1.00;;;;;;6242899;22;20143;-89
2022/12/23 12:22:34;;;;;;;21.10;12.70;;;8.00;1.00;;;;;;6243419;22;20189;-91
2022/12/23 12:25:20;;;;;;;20.88;12.48;;;8.00;1.00;;;;;;6243318;22;20163;-89
2022/12/23 12:27:53;;;;;;;18.47;11.40;;;8.00;1.00;;;;;;6243607;22;20166;-92
2022/12/23 12:30:21;;;;;;;18.67;12.63;;;8.80;1.00;;;;;;6243079;22;20362;-90
2022/12/23 12:32:59;;;;;;;20.58;12.43;;;7.90;1.00;;;;;;6241786;23;20175;-89
2022/12/23 12:35:36;;;;;;;18.50;11.95;;;8.20;1.00;;;;;;6225453;23;20164;-89
2022/12/23 12:38:11;;;;;;;21.07;11.50;;;7.90;1.00;;;;;;6225065;23;20181;-88
2022/12/23 12:40:43;;;;;;;17.73;12.17;;;7.90;1.00;;;;;;6223531;23;20424;-90
2022/12/23 12:43:20;;;;;;;19.95;11.43;;;7.60;1.00;;;;;;6226427;23;20370;-89
2022/12/23 12:45:52;;;;;;;16.07;11.23;;;7.70;1.00;;;;;;6238407;23;20163;-90
2022/12/23 12:48:34;;;;;;;15.90;10.70;;;8.10;1.00;;;;;;6239903;22;20401;-88
2022/12/23 12:51:06;;;;;;;13.27;10.20;;;7.80;1.00;;;;;;6235911;23;20210;-89
2022/12/23 12:53:35;;;;;;;13.63;9.60;;;7.80;1.00;;;;;;6236180;23;20164;-88
2022/12/23 12:56:12;;;;;;;18.38;11.30;;;7.70;1.00;;;;;;6234858;23;20179;-88
2022/12/23 12:58:40;;;;;;;14.10;9.57;;;8.20;1.00;;;;;;6236073;22;20162;-89
2022/12/23 13:01:23;;;;;;;15.32;10.05;;;7.90;1.00;;;;;;6228211;23;20787;-89
2022/12/23 13:04:17;;;;;;;12.03;9.13;;;7.80;1.00;;;;;;6230237;23;20164;-89
2022/12/23 13:06:56;;;;;;;11.67;8.17;;;7.60;1.00;;;;;;6235977;23;20410;-89
2022/12/23 13:09:31;;;;;;;11.82;8.82;;;8.00;1.00;;;;;;6241174;23;20370;-90
2022/12/23 13:12:06;;;;;;;12.35;8.98;;;7.70;1.00;;;;;;6238388;23;20191;-89
2022/12/23 13:14:49;;;;;;;12.90;8.65;;;7.50;1.00;;;;;;6237821;23;20194;-90
2022/12/23 13:17:21;;;;;;;16.55;9.32;;;7.40;1.00;;;;;;6235629;23;20164;-91
2022/12/23 13:19:54;;;;;;;13.00;9.00;;;7.50;1.00;;;;;;6235187;23;20202;-89
2022/12/23 13:22:26;;;;;;;14.75;9.90;;;7.50;1.00;;;;;;6234230;23;20195;-89
2022/12/23 13:25:00;;;;;;;16.42;8.80;;;7.50;1.00;;;;;;6230406;23;20225;-89
2022/12/23 13:27:33;;;;;;;15.20;9.63;;;7.50;1.00;;;;;;6225069;23;20163;-90
2022/12/23 13:30:11;;;;;;;10.75;8.98;;;7.50;1.00;;;;;;6229594;23;20227;-90
2022/12/23 13:33:03;;;;;;;14.27;9.07;;;7.50;1.00;;;;;;6239611;23;20159;-90
2022/12/23 13:35:42;;;;;;;12.45;8.88;;;7.30;1.00;;;;;;6224501;23;20179;-89
2022/12/23 13:38:22;;;;;;;12.00;8.07;;;7.60;1.00;;;;;;6245020;22;20154;-89
2022/12/23 13:40:58;;;;;;;10.65;8.52;;;7.50;1.00;;;;;;6244518;22;20195;-94
2022/12/23 13:43:35;;;;;;;10.77;7.88;;;7.50;1.00;;;;;;6245005;22;20147;-93
2022/12/23 13:46:08;;;;;;;13.13;8.50;;;7.80;1.00;;;;;;6242043;22;20186;-90
2022/12/23 13:48:43;;;;;;;14.77;8.90;;;7.50;1.00;;;;;;6239226;23;20167;-89
2022/12/23 13:51:15;;;;;;;11.25;8.25;;;7.50;1.00;;;;;;6227591;23;20203;-90
2022/12/23 13:53:53;;;;;;;12.05;8.55;;;7.70;1.00;;;;;;6225115;23;20206;-90
2022/12/23 13:56:29;;;;;;;11.30;8.68;;;7.40;1.00;;;;;;6224051;23;20194;-89
2022/12/23 13:58:58;;;;;;;13.45;10.05;;;7.10;1.00;;;;;;6237356;22;20175;-89
2022/12/23 14:01:36;;;;;;;14.63;10.32;;;7.40;1.00;;;;;;6244298;22;20215;-89
2022/12/23 14:04:30;;;;;;;16.27;9.43;;;7.30;1.00;;;;;;6244762;22;20170;-90
2022/12/23 14:06:58;;;;;;;16.63;8.43;;;7.40;1.00;;;;;;6237502;22;20182;-89
2022/12/23 14:09:30;;;;;;;12.40;9.48;;;7.40;1.00;;;;;;6227138;23;20186;-89
2022/12/23 14:11:57;;;;;;;13.35;8.88;;;7.40;1.00;;;;;;6225368;23;20239;-89
2022/12/23 14:14:27;;;;;;;11.82;8.27;;;7.30;1.00;;;;;;6224597;23;20182;-90
2022/12/23 14:17:06;;;;;;;9.90;7.13;;;7.70;1.00;;;;;;6230256;23;20282;-90
2022/12/23 14:19:51;;;;;;;11.43;8.23;;;7.50;1.00;;;;;;6244569;22;20361;-90
2022/12/23 14:22:38;;;;;;;12.70;8.93;;;7.70;1.00;;;;;;6244413;22;20218;-90
2022/12/23 14:25:44;;;;;;;12.15;8.38;;;7.20;1.00;;;;;;6244294;22;20182;-91
2022/12/23 14:28:39;;;;;;;12.05;8.95;;;7.50;1.00;;;;;;6244458;22;20183;-90
2022/12/23 14:31:29;;;;;;;11.10;9.13;;;7.20;1.00;;;;;;6216250;23;20202;-89
2022/12/23 14:34:04;;;;;;;11.70;8.27;;;7.40;1.00;;;;;;6222403;23;20186;-89
2022/12/23 14:36:30;;;;;;;13.30;9.32;;;7.40;1.00;;;;;;6224516;23;20167;-89
2022/12/23 14:39:31;;;;;;;12.23;8.75;;;7.40;1.00;;;;;;6242991;22;20183;-91
2022/12/23 14:41:58;;;;;;;13.07;10.48;;;7.40;1.00;;;;;;6171319;23;20571;-90
2022/12/23 14:44:45;;;;;;;13.13;9.02;;;7.50;1.00;;;;;;6224182;23;20235;-89
2022/12/23 14:47:35;;;;;;;16.17;9.68;;;7.70;1.00;;;;;;6224927;23;20159;-89
2022/12/23 14:50:41;;;;;;;18.80;11.13;;;7.40;1.00;;;;;;6227030;22;20191;-90
2022/12/23 14:53:23;;;;;;;21.10;13.95;;;7.40;1.00;;;;;;6221578;23;20167;-90
2022/12/23 14:55:52;;;;;;;15.23;11.23;;;7.40;1.00;;;;;;6222295;23;20246;-89
2022/12/23 14:58:50;;;;;;;16.40;11.48;;;7.40;1.00;;;;;;6243225;22;20183;-90
2022/12/23 15:01:21;;;;;;;21.25;10.98;;;7.40;1.00;;;;;;6243779;22;20222;-89
2022/12/23 15:03:51;;;;;;;17.63;11.32;;;7.50;1.00;;;;;;6236759;22;20159;-88
2022/12/23 15:06:28;;;;;;;13.30;10.13;;;7.40;1.00;;;;;;6229884;23;20555;-90
2022/12/23 15:08:56;;;;;;;18.92;11.88;;;7.20;1.00;;;;;;6227979;23;20164;-90
2022/12/23 15:11:28;;;;;;;13.90;10.57;;;7.60;1.00;;;;;;6228535;23;20195;-90
2022/12/23 15:13:57;;;;;;;16.27;10.68;;;7.40;1.00;;;;;;6227743;23;20411;-89
2022/12/23 15:16:34;;;;;;;15.98;11.95;;;7.30;1.00;;;;;;6233701;23;20190;-90
2022/12/23 15:19:15;;;;;;;16.42;12.00;;;7.30;1.00;;;;;;6223493;23;20160;-90
2022/12/23 15:21:42;;;;;;;21.90;12.65;;;7.30;1.00;;;;;;6237292;23;20199;-89
2022/12/23 15:24:14;;;;;;;24.15;13.90;;;7.30;1.00;;;;;;6243209;22;20239;-89
2022/12/23 15:26:47;;;;;;;25.10;14.77;;;7.30;1.00;;;;;;6243651;22;20147;-89
2022/12/23 15:29:16;;;;;;;22.63;14.02;;;7.30;1.00;;;;;;6243915;22;20160;-90
2022/12/23 15:31:48;;;;;;;24.08;16.70;;;7.10;1.00;;;;;;6243764;22;20184;-90
2022/12/23 15:34:24;;;;;;;32.42;22.85;;;7.30;1.00;;;;;;6243778;22;20156;-89
2022/12/23 15:36:53;;;;;;;25.17;15.75;;;7.20;1.00;;;;;;6240756;22;20166;-90
2022/12/23 15:39:31;;;;;;;15.88;11.02;;;7.50;1.00;;;;;;6233822;23;20179;-88
2022/12/23 15:41:58;;;;;;;25.27;16.73;;;;;;;;;;6231098;23;20237;-89
2022/12/23 15:44:34;;;;;;;26.88;16.70;;;7.00;1.00;;;;;;6240356;22;20168;-90
2022/12/23 15:47:01;;;;;;;25.52;16.85;;;6.80;1.00;;;;;;6243947;22;20167;-89
2022/12/23 15:49:29;;;;;;;21.00;12.93;;;;;;;;;;6241287;22;20167;-90
2022/12/23 15:52:00;;;;;;;17.23;12.88;;;6.90;1.00;;;;;;6239798;23;20203;-89
2022/12/23 15:54:31;;;;;;;20.48;13.15;;;7.00;1.00;;;;;;6236385;23;20154;-90
2022/12/23 15:57:01;;;;;;;18.67;11.57;;;6.90;1.00;;;;;;6231168;23;20183;-88
2022/12/23 15:59:32;;;;;;;18.98;11.65;;;6.90;1.00;;;;;;6229331;23;20201;-89
2022/12/23 16:02:08;;;;;;;18.27;11.25;;;6.80;1.00;;;;;;6225369;23;20207;-90
2022/12/23 16:04:36;;;;;;;17.63;12.43;;;6.90;1.00;;;;;;6227060;23;20578;-90
2022/12/23 16:07:03;;;;;;;19.08;12.10;;;6.90;1.00;;;;;;6224541;23;20175;-91
2022/12/23 16:09:33;;;;;;;21.77;14.10;;;6.90;1.00;;;;;;6222683;23;20209;-89
2022/12/23 16:12:02;;;;;;;21.88;13.30;;;6.90;1.00;;;;;;6223733;23;20210;-89
2022/12/23 16:14:36;;;;;;;25.67;14.40;;;7.10;1.00;;;;;;6223110;23;20497;-90
2022/12/23 16:17:14;;;;;;;20.58;14.10;;;7.00;1.00;;;;;;6222762;23;20163;-89
2022/12/23 16:19:45;;;;;;;18.95;12.10;;;7.00;1.00;;;;;;6221868;23;20202;-90
2022/12/23 16:22:19;;;;;;;26.08;15.13;;;7.00;1.00;;;;;;6222706;23;20278;-90
2022/12/23 16:24:48;;;;;;;21.83;14.20;;;7.00;1.00;;;;;;6221929;23;20164;-89
2022/12/23 16:27:18;;;;;;;26.17;15.38;;;7.10;1.00;;;;;;6222032;23;20402;-89